KEEN/EEN METAR and TAF weather

Enter ICAO airport designator
Station Type Date Time Source
KEEN METAR 2022/01/29 09:56 UTC NOAA

KEEN 290956Z AUTO 35011KT 1 1/4SM -SN BR BKN023 OVC030 M10/M12 A2992 RMK AO2 SLP144 P0000 T11001122 FZRANO $


Station Type Date Time Source
KEEN Decoded METAR 2022/01/29 09:56 UTC NOAA

Keene, Dillant-Hopkins Airport, NH, United States (KEEN) 42-54N 072-16W
Jan 29, 2022 - 04:56 AM EST / 2022.01.29 0956 UTC
Wind: from the N (350 degrees) at 13 MPH (11 KT):0
Visibility: 1 1/4 mile(s):0
Sky conditions: overcast
Weather: light snow; mist
Precipitation last hour: A trace
Temperature: 14.0 F (-10.0 C)
Windchill: 0 F (-18 C):1
Dew Point: 10.0 F (-12.2 C)
Relative Humidity: 83%
Pressure (altimeter): 29.92 in. Hg (1013 hPa)
ob: KEEN 290956Z AUTO 35011KT 1 1/4SM -SN BR BKN023 OVC030 M10/M12 A2992 RMK AO2 SLP144 P0000 T11001122 FZRANO
cycle: 10

Station Type Date Time Source
KEEN TAF UTC NOAA

Error!

Example: see airport list